Time;durP1;ratioP1;P1;durP2;ratioP2;P2;SDS_P1;SDS_P2;PMS_P1;PMS_P2;Temp;Humidity;BMP_temperature;BMP_pressure;BME280_temperature;BME280_humidity;BME280_pressure;Samples;Min_cycle;Max_cycle;Signal;HPM_P1;HPM_P2
2023/10/24 00:00:12;;;;;;;;;;;;;;;15.42;80.69;100159.09;5115557;27;19915;-82
2023/10/24 00:02:38;;;;;;;;;;;;;;;15.57;79.15;100153.94;5116242;27;19919;-81
2023/10/24 00:05:04;;;;;;;;;;;;;;;15.81;77.89;100149.16;5124549;27;19963;-82
2023/10/24 00:07:29;;;;;;;;;;;;;;;15.20;81.07;100149.16;5110966;28;20376;-81
2023/10/24 00:09:54;;;;;;;;;;;;;;;15.16;81.88;100152.56;5116041;27;20308;-81
2023/10/24 00:12:19;;;;;;;;;;;;;;;14.77;83.53;100156.03;5113089;28;19918;-81
2023/10/24 00:14:45;;;;;;;;;;;;;;;15.20;81.10;100154.53;5115359;27;19916;-82
2023/10/24 00:17:10;;;;;;;;;;;;;;;14.77;83.71;100152.50;5128498;27;19983;-84
2023/10/24 00:19:35;;;;;;;;;;;;;;;15.06;82.63;100137.94;5116046;27;19938;-81
2023/10/24 00:22:00;;;;;;;;;;;;;;;14.79;83.71;100142.34;5126369;27;19967;-82
2023/10/24 00:24:27;;;;;;;;;;;;;;;14.49;85.72;100148.81;5116093;27;19915;-81
2023/10/24 00:26:54;;;;;;;;;;;;;;;14.04;86.86;100134.34;5111626;27;19916;-82
2023/10/24 00:29:19;;;;;;;;;;;;;;;14.33;85.61;100145.06;5128836;27;20395;-83
2023/10/24 00:31:44;;;;;;;;;;;;;;;14.40;85.09;100151.06;5123230;27;20027;-81
2023/10/24 00:34:12;;;;;;;;;;;;;;;13.96;85.46;100140.09;5118120;27;19918;-82
2023/10/24 00:36:39;;;;;;;;;;;;;;;14.13;84.80;100142.00;5113962;27;20008;-82
2023/10/24 00:39:05;;;;;;;;;;;;;;;13.54;87.15;100140.34;5115257;27;19923;-83
2023/10/24 00:41:30;;;;;;;;;;;;;;;13.76;86.00;100128.97;5112876;27;19920;-81
2023/10/24 00:43:55;;;;;;;;;;;;;;;13.32;88.01;100117.91;5120262;27;20398;-81
2023/10/24 00:46:24;;;;;;;;;;;;;;;13.62;87.23;100123.88;5128669;27;19919;-81
2023/10/24 00:48:49;;;;;;;;;;;;;;;14.05;86.47;100127.91;5117762;27;19970;-82
2023/10/24 00:51:15;;;;;;;;;;;;;;;14.23;86.49;100134.16;5123691;27;19947;-81
2023/10/24 00:53:40;;;;;;;;;;;;;;;14.37;85.65;100130.09;5111851;28;20433;-83
2023/10/24 00:56:06;;;;;;;;;;;;;;;14.31;86.05;100127.59;5111577;28;19958;-82
2023/10/24 00:58:32;;;;;;;;;;;;;;;14.17;87.29;100125.19;5111517;28;19938;-81
2023/10/24 01:00:59;;;;;;;;;;;;;;;14.54;86.17;100119.38;5113676;27;19923;-81
2023/10/24 01:03:25;;;;;;;;;;;;;;;13.90;90.24;100119.63;5111439;28;19911;-81
2023/10/24 01:05:51;;;;;;;;;;;;;;;14.12;89.69;100127.78;5118926;27;19915;-82
2023/10/24 01:08:16;;;;;;;;;;;;;;;14.48;87.84;100117.66;5124334;27;19916;-84
2023/10/24 01:10:42;;;;;;;;;;;;;;;14.55;86.82;100112.97;5113372;27;20421;-82
2023/10/24 01:13:07;;;;;;;;;;;;;;;14.61;86.42;100108.53;5110567;28;19915;-81
2023/10/24 01:15:33;;;;;;;;;;;;;;;14.58;86.27;100115.19;5111396;27;19972;-82
2023/10/24 01:18:03;;;;;;;;;;;;;;;14.68;86.13;100117.22;5127714;27;20312;-81
2023/10/24 01:20:28;;;;;;;;;;;;;;;14.64;86.75;100116.06;5128034;27;20387;-81
2023/10/24 01:22:53;;;;;;;;;;;;;;;14.75;85.85;100115.19;5111239;28;19911;-84
2023/10/24 01:25:19;;;;;;;;;;;;;;;14.43;88.62;100113.03;5143220;27;19915;-82
2023/10/24 01:27:45;;;;;;;;;;;;;;;14.27;88.29;100117.31;5123874;28;20299;-81
2023/10/24 01:30:11;;;;;;;;;;;;;;;14.23;88.66;100123.41;5127327;27;19927;-81
2023/10/24 01:32:36;;;;;;;;;;;;;;;14.30;88.62;100118.69;5121822;28;19965;-81
2023/10/24 01:35:01;;;;;;;;;;;;;;;14.77;85.55;100122.97;5124242;28;19932;-81
2023/10/24 01:37:27;;;;;;;;;;;;;;;14.89;83.92;100109.47;5128052;28;19984;-82
2023/10/24 01:39:52;;;;;;;;;;;;;;;14.94;83.20;100117.63;5113650;28;19923;-82
2023/10/24 01:42:18;;;;;;;;;;;;;;;14.75;84.07;100120.56;5122686;28;19916;-83
2023/10/24 01:44:43;;;;;;;;;;;;;;;14.73;84.42;100113.78;5118318;28;20010;-81
2023/10/24 01:47:08;;;;;;;;;;;;;;;14.60;84.71;100117.63;5113394;28;20021;-82
2023/10/24 01:49:34;;;;;;;;;;;;;;;14.32;86.59;100121.94;5111259;28;19979;-80
2023/10/24 01:52:01;;;;;;;;;;;;;;;14.44;86.15;100130.78;5114772;28;20377;-80
2023/10/24 01:54:26;;;;;;;;;;;;;;;14.46;84.86;100128.66;5116403;28;19923;-82
2023/10/24 01:56:52;;;;;;;;;;;;;;;14.38;85.36;100120.97;5122530;28;19920;-81
2023/10/24 01:59:17;;;;;;;;;;;;;;;14.33;86.12;100117.44;5120005;28;20312;-81
2023/10/24 02:01:42;;;;;;;;;;;;;;;14.40;86.10;100121.56;5121667;28;20021;-81
2023/10/24 02:04:07;;;;;;;;;;;;;;;14.57;85.70;100123.50;5109108;28;20571;-82
2023/10/24 02:06:33;;;;;;;;;;;;;;;13.83;88.43;100121.59;5126749;28;20319;-81
2023/10/24 02:08:58;;;;;;;;;;;;;;;13.46;90.97;100114.75;5111252;28;19958;-81
2023/10/24 02:11:23;;;;;;;;;;;;;;;13.47;90.63;100120.91;5114972;28;19916;-82
2023/10/24 02:13:49;;;;;;;;;;;;;;;13.46;90.83;100114.75;5110517;28;19918;-81
2023/10/24 02:16:14;;;;;;;;;;;;;;;13.13;89.73;100115.34;5110313;28;19915;-82
2023/10/24 02:18:39;;;;;;;;;;;;;;;13.05;92.09;100113.81;5111729;27;19912;-83
2023/10/24 02:21:06;;;;;;;;;;;;;;;13.87;87.77;100114.72;5124545;28;20021;-81
2023/10/24 02:23:31;;;;;;;;;;;;;;;13.56;87.79;100124.84;5122009;28;20014;-81
2023/10/24 02:25:57;;;;;;;;;;;;;;;13.15;89.56;100118.59;5116345;28;20018;-81
2023/10/24 02:28:22;;;;;;;;;;;;;;;13.41;89.93;100117.31;5127851;28;19915;-81
2023/10/24 02:30:47;;;;;;;;;;;;;;;13.46;89.21;100113.91;5114150;28;20018;-81
2023/10/24 02:33:13;;;;;;;;;;;;;;;13.22;91.05;100115.81;5111641;28;19919;-81
2023/10/24 02:35:38;;;;;;;;;;;;;;;12.93;90.95;100120.22;5111176;28;20289;-81
2023/10/24 02:38:03;;;;;;;;;;;;;;;12.84;90.42;100125.94;5123230;28;19960;-83
2023/10/24 02:40:28;;;;;;;;;;;;;;;13.05;89.88;100129.06;5115692;28;19923;-82
2023/10/24 02:42:54;;;;;;;;;;;;;;;12.64;92.63;100125.44;5124325;27;19916;-81
2023/10/24 02:45:19;;;;;;;;;;;;;;;12.33;92.99;100135.41;5114241;28;19919;-81
2023/10/24 02:47:47;;;;;;;;;;;;;;;12.89;90.12;100140.47;5120664;27;19987;-83
2023/10/24 02:50:12;;;;;;;;;;;;;;;12.22;91.60;100147.69;5132928;27;20011;-81
2023/10/24 02:52:38;;;;;;;;;;;;;;;12.58;90.24;100145.91;5119490;27;20775;-84
2023/10/24 02:55:03;;;;;;;;;;;;;;;12.53;90.96;100140.44;5112853;28;19908;-81
2023/10/24 02:57:28;;;;;;;;;;;;;;;12.34;91.56;100141.53;5117306;27;19919;-81
2023/10/24 02:59:54;;;;;;;;;;;;;;;12.63;90.48;100135.34;5113976;28;19916;-81
2023/10/24 03:02:20;;;;;;;;;;;;;;;13.10;87.91;100141.75;5121769;27;19923;-81
2023/10/24 03:04:45;;;;;;;;;;;;;;;12.55;91.09;100145.56;5117959;27;20289;-81
2023/10/24 03:07:10;;;;;;;;;;;;;;;13.01;88.46;100150.13;5130965;27;20388;-81
2023/10/24 03:09:36;;;;;;;;;;;;;;;13.41;87.44;100148.66;5114444;27;19924;-82
2023/10/24 03:12:01;;;;;;;;;;;;;;;13.34;87.24;100147.94;5112796;27;20387;-83
2023/10/24 03:14:27;;;;;;;;;;;;;;;12.99;89.39;100148.75;5112822;28;19946;-82
2023/10/24 03:16:53;;;;;;;;;;;;;;;12.54;90.05;100146.59;5127679;27;19950;-81
2023/10/24 03:19:18;;;;;;;;;;;;;;;12.22;91.69;100146.88;5113707;27;20286;-82
2023/10/24 03:21:43;;;;;;;;;;;;;;;12.41;89.53;100145.75;5128341;27;19920;-81
2023/10/24 03:24:09;;;;;;;;;;;;;;;12.81;87.43;100145.16;5121195;27;19915;-81
2023/10/24 03:26:34;;;;;;;;;;;;;;;12.93;86.51;100152.34;5121434;27;19965;-81
2023/10/24 03:28:59;;;;;;;;;;;;;;;12.86;87.67;100153.28;5121989;27;19923;-84
2023/10/24 03:31:24;;;;;;;;;;;;;;;12.24;90.42;100150.16;5115515;27;20024;-82
2023/10/24 03:33:50;;;;;;;;;;;;;;;11.98;92.96;100133.41;5113589;27;19915;-81
2023/10/24 03:36:15;;;;;;;;;;;;;;;11.93;92.82;100145.81;5110127;28;20371;-83
2023/10/24 03:38:41;;;;;;;;;;;;;;;11.72;93.23;100142.56;5115755;27;20403;-81
2023/10/24 03:41:07;;;;;;;;;;;;;;;11.88;92.95;100143.00;5113336;27;19922;-82
2023/10/24 03:43:33;;;;;;;;;;;;;;;11.74;93.54;100135.13;5115078;27;19923;-82
2023/10/24 03:45:58;;;;;;;;;;;;;;;11.84;92.73;100150.63;5130121;27;19969;-83
2023/10/24 03:48:24;;;;;;;;;;;;;;;11.86;92.75;100148.56;5116004;27;19915;-81
2023/10/24 03:50:49;;;;;;;;;;;;;;;11.64;92.14;100153.53;5125646;27;19938;-81
2023/10/24 03:53:14;;;;;;;;;;;;;;;12.30;89.65;100159.94;5119955;27;20462;-83
2023/10/24 03:55:39;;;;;;;;;;;;;;;12.55;90.01;100156.28;5132452;27;20002;-82
2023/10/24 03:58:05;;;;;;;;;;;;;;;12.64;88.33;100160.22;5116412;27;19915;-81
2023/10/24 04:00:30;;;;;;;;;;;;;;;12.71;88.17;100160.97;5113776;27;19991;-80
2023/10/24 04:02:56;;;;;;;;;;;;;;;12.48;90.60;100150.19;5122570;27;19943;-80
2023/10/24 04:05:21;;;;;;;;;;;;;;;12.20;92.11;100155.13;5112474;27;20081;-81
2023/10/24 04:07:47;;;;;;;;;;;;;;;12.16;91.80;100153.13;5111724;27;19911;-81
2023/10/24 04:10:12;;;;;;;;;;;;;;;12.12;92.24;100151.97;5128365;27;20387;-81
2023/10/24 04:12:38;;;;;;;;;;;;;;;12.57;90.98;100148.84;5115490;27;19911;-82
2023/10/24 04:15:03;;;;;;;;;;;;;;;12.73;91.30;100150.00;5121518;27;19919;-80
2023/10/24 04:17:29;;;;;;;;;;;;;;;12.61;91.26;100150.81;5119325;27;19934;-81
2023/10/24 04:19:54;;;;;;;;;;;;;;;12.77;90.22;100159.19;5111717;28;19922;-81
2023/10/24 04:22:20;;;;;;;;;;;;;;;12.59;92.15;100160.13;5127705;27;19915;-82
2023/10/24 04:24:45;;;;;;;;;;;;;;;12.71;90.94;100160.97;5121788;27;20388;-80
2023/10/24 04:27:11;;;;;;;;;;;;;;;12.73;91.29;100169.56;5118284;27;19931;-81
2023/10/24 04:29:36;;;;;;;;;;;;;;;12.67;91.57;100165.13;5118524;27;19965;-81
2023/10/24 04:32:02;;;;;;;;;;;;;;;12.89;90.67;100172.59;5109717;28;20421;-82
2023/10/24 04:34:28;;;;;;;;;;;;;;;13.16;89.31;100167.63;5123087;27;19963;-81
2023/10/24 04:36:55;;;;;;;;;;;;;;;12.60;93.20;100180.47;5109547;28;20350;-79
2023/10/24 04:39:21;;;;;;;;;;;;;;;12.28;95.40;100178.06;5116432;27;20445;-80
2023/10/24 04:41:46;;;;;;;;;;;;;;;12.17;96.64;100178.81;5123908;27;19920;-80
2023/10/24 04:44:11;;;;;;;;;;;;;;;12.33;96.15;100180.03;5109874;27;19927;-81
2023/10/24 04:46:39;;;;;;;;;;;;;;;12.54;93.96;100184.06;5092575;27;20395;-80
2023/10/24 04:49:04;;;;;;;;;;;;;;;12.12;95.34;100184.03;5125271;27;19958;-81
2023/10/24 04:51:30;;;;;;;;;;;;;;;12.15;92.46;100192.41;5112830;27;19955;-82
2023/10/24 04:53:56;;;;;;;;;;;;;;;12.07;93.26;100187.38;5111074;28;19989;-81
2023/10/24 04:56:21;;;;;;;;;;;;;;;11.82;94.86;100184.78;5126082;27;20566;-81
2023/10/24 04:58:46;;;;;;;;;;;;;;;12.53;91.59;100198.50;5112406;27;20337;-80
2023/10/24 05:01:12;;;;;;;;;;;;;;;12.38;92.49;100202.41;5112280;27;19916;-80
2023/10/24 05:03:38;;;;;;;;;;;;;;;12.66;92.27;100199.09;5113475;27;19927;-81
2023/10/24 05:06:04;;;;;;;;;;;;;;;12.60;92.98;100204.53;5120617;27;20482;-83
2023/10/24 05:08:29;;;;;;;;;;;;;;;12.35;95.13;100200.16;5116712;27;19919;-80
2023/10/24 05:10:54;;;;;;;;;;;;;;;12.54;94.10;100213.47;5141412;27;19919;-81
2023/10/24 05:13:20;;;;;;;;;;;;;;;12.93;92.44;100228.09;5111673;27;19916;-81
2023/10/24 05:15:45;;;;;;;;;;;;;;;13.11;91.28;100229.06;5122115;27;19915;-81
2023/10/24 05:18:11;;;;;;;;;;;;;;;13.12;91.06;100230.69;5110346;28;19912;-81
2023/10/24 05:20:36;;;;;;;;;;;;;;;13.14;92.22;100229.44;5120930;27;19940;-81
2023/10/24 05:23:02;;;;;;;;;;;;;;;13.11;92.21;100242.47;5118043;27;19916;-81
2023/10/24 05:25:27;;;;;;;;;;;;;;;13.23;89.52;100254.00;5122168;27;19989;-80
2023/10/24 05:27:52;;;;;;;;;;;;;;;13.17;90.89;100250.38;5116530;28;19979;-82
2023/10/24 05:30:17;;;;;;;;;;;;;;;13.23;91.57;100257.50;5124811;27;19925;-80
2023/10/24 05:32:43;;;;;;;;;;;;;;;13.03;94.00;100255.13;5118832;28;19919;-81
2023/10/24 05:35:09;;;;;;;;;;;;;;;12.86;95.64;100271.03;5112376;28;19916;-81
2023/10/24 05:37:34;;;;;;;;;;;;;;;12.79;95.69;100266.81;5108472;28;19923;-81
2023/10/24 05:39:59;;;;;;;;;;;;;;;12.77;96.62;100264.41;5113393;28;19926;-83
2023/10/24 05:42:25;;;;;;;;;;;;;;;12.94;94.93;100274.44;5121228;28;19916;-82
2023/10/24 05:44:50;;;;;;;;;;;;;;;13.00;94.69;100277.03;5113795;28;20277;-81
2023/10/24 05:47:15;;;;;;;;;;;;;;;13.16;93.59;100277.41;5126864;28;19958;-83
2023/10/24 05:49:41;;;;;;;;;;;;;;;13.18;94.19;100294.88;5110965;28;19922;-82
2023/10/24 05:52:07;;;;;;;;;;;;;;;13.29;94.38;100282.56;5108492;28;19919;-80
2023/10/24 05:54:33;;;;;;;;;;;;;;;13.68;92.92;100287.47;5113300;28;19927;-81
2023/10/24 05:56:58;;;;;;;;;;;;;;;13.95;92.25;100277.88;5122444;28;20307;-81
2023/10/24 05:59:26;;;;;;;;;;;;;;;14.30;92.11;100295.75;5113583;28;19915;-81
2023/10/24 06:01:51;;;;;;;;;;;;;;;14.64;91.52;100302.09;5125809;28;20018;-81
2023/10/24 06:04:16;;;;;;;;;;;;;;;14.81;90.63;100293.25;5109369;28;20068;-84
2023/10/24 06:06:42;;;;;;;;;;;;;;;15.05;88.91;100299.31;5121040;28;19919;-81
2023/10/24 06:09:11;;;;;;;;;;;;;;;15.26;86.79;100311.22;5122168;28;20022;-81
2023/10/24 06:11:36;;;;;;;;;;;;;;;15.27;86.31;100316.34;5112551;28;19976;-82
2023/10/24 06:14:01;;;;;;;;;;;;;;;15.21;87.10;100311.16;5122505;28;19965;-81
2023/10/24 06:16:27;;;;;;;;;;;;;;;15.34;86.67;100310.00;5114858;27;19942;-82
2023/10/24 06:18:52;;;;;;;;;;;;;;;15.48;86.21;100322.06;5125941;27;19915;-82
2023/10/24 06:21:17;;;;;;;;;;;;;;;15.51;85.85;100332.31;5126340;27;19923;-82
2023/10/24 06:23:43;;;;;;;;;;;;;;;15.50;86.25;100319.94;5120143;27;19998;-81
2023/10/24 06:26:13;;;;;;;;;;;;;;;15.52;86.40;100323.19;5115588;27;20308;-81
2023/10/24 06:28:38;;;;;;;;;;;;;;;15.75;84.84;100321.41;5118237;27;20648;-81
2023/10/24 06:31:06;;;;;;;;;;;;;;;15.54;86.22;100317.56;5123786;27;19916;-82
2023/10/24 06:33:32;;;;;;;;;;;;;;;15.82;84.16;100314.00;5119969;27;19916;-82
2023/10/24 06:35:57;;;;;;;;;;;;;;;15.83;83.95;100312.91;5122717;27;19918;-81
2023/10/24 06:38:23;;;;;;;;;;;;;;;15.89;84.45;100306.53;5114582;27;20010;-80
2023/10/24 06:40:49;;;;;;;;;;;;;;;16.02;83.85;100311.59;5129835;27;19962;-80
2023/10/24 06:43:15;;;;;;;;;;;;;;;16.12;82.66;100318.97;5130639;27;19976;-81
2023/10/24 06:45:43;;;;;;;;;;;;;;;16.24;82.74;100319.66;5122120;27;19920;-81
2023/10/24 06:48:11;;;;;;;;;;;;;;;16.24;83.06;100314.28;5111809;28;19998;-81
2023/10/24 06:50:36;;;;;;;;;;;;;;;16.34;81.97;100313.56;5115357;27;19923;-81
2023/10/24 06:53:01;;;;;;;;;;;;;;;16.62;80.72;100319.84;5113081;27;19997;-80
2023/10/24 06:55:27;;;;;;;;;;;;;;;16.69;79.70;100315.03;5112375;28;19926;-80
2023/10/24 06:57:52;;;;;;;;;;;;;;;17.03;79.16;100320.28;5112259;28;20002;-82
2023/10/24 07:00:18;;;;;;;;;;;;;;;17.23;78.02;100315.06;5126996;27;20361;-83
2023/10/24 07:02:43;;;;;;;;;;;;;;;17.46;76.66;100318.47;5127084;27;19937;-81
2023/10/24 07:05:08;;;;;;;;;;;;;;;17.63;76.76;100311.06;5109642;27;19919;-82
2023/10/24 07:07:35;;;;;;;;;;;;;;;17.85;75.54;100320.91;5111067;28;19931;-81
2023/10/24 07:10:01;;;;;;;;;;;;;;;18.13;75.11;100308.94;5115753;27;20408;-80
2023/10/24 07:12:26;;;;;;;;;;;;;;;18.37;73.42;100305.75;5114920;27;19915;-81
2023/10/24 07:14:53;;;;;;;;;;;;;;;18.60;71.35;100304.50;5127717;27;20308;-81
2023/10/24 07:17:18;;;;;;;;;;;;;;;18.67;71.92;100305.88;5114262;27;19961;-82
2023/10/24 07:19:43;;;;;;;;;;;;;;;18.85;70.60;100304.56;5110947;28;19954;-83
2023/10/24 07:22:08;;;;;;;;;;;;;;;19.16;69.17;100307.31;5119461;27;20415;-82
2023/10/24 07:24:34;;;;;;;;;;;;;;;19.12;69.81;100300.81;5118798;27;19923;-81
2023/10/24 07:26:59;;;;;;;;;;;;;;;19.43;69.45;100301.63;5110969;27;19923;-81
2023/10/24 07:29:27;;;;;;;;;;;;;;;19.74;66.29;100307.03;5109015;28;19919;-84
2023/10/24 07:31:53;;;;;;;;;;;;;;;19.82;65.30;100298.34;5111370;28;19923;-82
2023/10/24 07:34:18;;;;;;;;;;;;;;;20.02;63.53;100302.91;5113106;27;19919;-82
2023/10/24 07:36:43;;;;;;;;;;;;;;;19.94;64.22;100295.34;5112953;27;19920;-82
2023/10/24 07:39:09;;;;;;;;;;;;;;;19.99;63.24;100298.03;5128871;27;19920;-81
2023/10/24 07:41:34;;;;;;;;;;;;;;;20.01;63.52;100295.03;5112043;27;19920;-83
2023/10/24 07:43:59;;;;;;;;;;;;;;;20.05;62.98;100298.81;5114355;27;20336;-81
2023/10/24 07:46:24;;;;;;;;;;;;;;;20.39;62.65;100296.25;5121746;27;19915;-83
2023/10/24 07:48:52;;;;;;;;;;;;;;;20.28;62.25;100290.03;5110891;28;19919;-81
2023/10/24 07:51:18;;;;;;;;;;;;;;;20.63;60.73;100284.75;5110536;28;19951;-81
2023/10/24 07:53:44;;;;;;;;;;;;;;;20.73;61.32;100289.31;5110763;28;19974;-81
2023/10/24 07:56:09;;;;;;;;;;;;;;;20.86;60.28;100277.81;5115283;27;19922;-79
2023/10/24 07:58:34;;;;;;;;;;;;;;;20.95;59.16;100272.63;5109345;27;19947;-80
2023/10/24 08:00:59;;;;;;;;;;;;;;;21.17;57.94;100275.69;5109506;28;20405;-83
2023/10/24 08:03:27;;;;;;;;;;;;;;;21.16;58.46;100271.34;5124510;27;19923;-81
2023/10/24 08:05:52;;;;;;;;;;;;;;;21.47;55.79;100271.09;5110449;27;19962;-82
2023/10/24 08:08:18;;;;;;;;;;;;;;;21.61;55.40;100271.22;5109519;27;19967;-82
2023/10/24 08:10:43;;;;;;;;;;;;;;;21.63;54.93;100272.53;5120869;27;20018;-81
2023/10/24 08:13:08;;;;;;;;;;;;;;;21.75;54.85;100268.63;5116716;27;20402;-82
2023/10/24 08:15:34;;;;;;;;;;;;;;;21.63;56.12;100260.88;5110574;28;19942;-80
2023/10/24 08:17:59;;;;;;;;;;;;;;;21.94;54.38;100264.06;5114782;27;19919;-82
2023/10/24 08:20:24;;;;;;;;;;;;;;;22.00;55.55;100257.47;5116282;27;19925;-82
2023/10/24 08:22:51;;;;;;;;;;;;;;;22.07;55.93;100247.06;5121002;27;19915;-82
2023/10/24 08:25:16;;;;;;;;;;;;;;;22.44;54.36;100248.22;5121619;27;19922;-82
2023/10/24 08:27:42;;;;;;;;;;;;;;;22.76;53.25;100251.28;5130453;27;19919;-82
2023/10/24 08:30:08;;;;;;;;;;;;;;;22.95;50.86;100251.28;5111043;27;19916;-81
2023/10/24 08:32:34;;;;;;;;;;;;;;;22.71;51.67;100241.31;5115761;27;20409;-84
2023/10/24 08:34:59;;;;;;;;;;;;;;;22.80;52.65;100239.56;5123254;27;20438;-81
2023/10/24 08:37:25;;;;;;;;;;;;;;;22.94;51.84;100236.84;5111497;28;19914;-81
2023/10/24 08:39:50;;;;;;;;;;;;;;;23.28;50.30;100238.50;5125726;27;19915;-82
2023/10/24 08:42:16;;;;;;;;;;;;;;;23.19;50.12;100227.50;5111622;27;19983;-81
2023/10/24 08:44:42;;;;;;;;;;;;;;;23.43;49.97;100234.69;5125845;27;19927;-86
2023/10/24 08:47:09;;;;;;;;;;;;;;;23.25;50.20;100242.63;5110396;28;19923;-82
2023/10/24 08:49:36;;;;;;;;;;;;;;;23.38;51.11;100237.50;5121541;27;19995;-80
2023/10/24 08:52:01;;;;;;;;;;;;;;;23.54;48.93;100236.13;5125816;27;19937;-78
2023/10/24 08:54:26;;;;;;;;;;;;;;;23.73;48.86;100235.22;5109921;27;20606;-83
2023/10/24 08:56:52;;;;;;;;;;;;;;;23.82;48.24;100233.41;5115549;27;19975;-80
2023/10/24 08:59:19;;;;;;;;;;;;;;;23.85;48.06;100227.38;5110891;28;19951;-81
2023/10/24 09:01:44;;;;;;;;;;;;;;;24.10;47.28;100226.03;5111233;28;20303;-81
2023/10/24 09:04:10;;;;;;;;;;;;;;;24.51;46.35;100233.31;5114248;27;19915;-81
2023/10/24 09:06:36;;;;;;;;;;;;;;;24.43;46.25;100215.72;5113106;27;19959;-81
2023/10/24 09:09:02;;;;;;;;;;;;;;;24.62;45.24;100228.41;5113738;27;19916;-82
2023/10/24 09:11:47;;;;;;;;;;;;;;;24.78;44.42;100226.94;5118572;27;19923;-81
2023/10/24 09:14:12;;;;;;;;;;;;;;;24.62;44.20;100218.34;5125356;27;19920;-83
2023/10/24 09:16:38;;;;;;;;;;;;;;;25.10;43.28;100222.34;5128471;27;19926;-81
2023/10/24 09:19:11;;;;;;;;;;;;;;;25.07;42.33;100222.97;5122292;27;20014;-82
2023/10/24 09:21:36;;;;;;;;;;;;;;;25.30;41.61;100215.56;5133354;27;19915;-82
2023/10/24 09:24:05;;;;;;;;;;;;;;;25.21;42.00;100207.34;5118131;27;19916;-84
2023/10/24 09:26:30;;;;;;;;;;;;;;;25.43;42.25;100205.66;5120861;27;19915;-82
2023/10/24 09:28:56;;;;;;;;;;;;;;;25.48;41.99;100200.06;5123652;27;20024;-82
2023/10/24 09:31:22;;;;;;;;;;;;;;;25.54;40.97;100204.28;5114436;28;19942;-83
2023/10/24 09:33:47;;;;;;;;;;;;;;;25.87;39.02;100198.41;5126735;28;20295;-83
2023/10/24 09:36:23;;;;;;;;;;;;;;;25.73;40.53;100186.81;5121887;28;19923;-82
2023/10/24 09:38:48;;;;;;;;;;;;;;;25.79;40.90;100182.81;5110302;28;20386;-83
2023/10/24 09:41:14;;;;;;;;;;;;;;;26.14;39.87;100177.41;5144577;27;20010;-82
2023/10/24 09:43:43;;;;;;;;;;;;;;;26.03;40.21;100177.72;5112556;28;20309;-81
2023/10/24 09:46:09;;;;;;;;;;;;;;;26.35;38.24;100169.38;5121130;28;19920;-84
2023/10/24 09:48:54;;;;;;;;;;;;;;;26.44;37.59;100170.97;5107356;28;20011;-85
2023/10/24 09:51:19;;;;;;;;;;;;;;;26.51;37.92;100167.75;5129045;27;20382;-82
2023/10/24 09:53:46;;;;;;;;;;;;;;;26.77;37.37;100165.00;5113456;28;19913;-82
2023/10/24 09:56:12;;;;;;;;;;;;;;;26.84;36.98;100164.50;5116843;27;19920;-82
2023/10/24 09:58:41;;;;;;;;;;;;;;;27.05;37.01;100167.34;5118800;27;19965;-82
2023/10/24 10:01:06;;;;;;;;;;;;;;;26.78;36.98;100152.13;5130166;27;19939;-82
2023/10/24 10:03:35;;;;;;;;;;;;;;;27.03;36.90;100155.91;5115474;27;19970;-82
2023/10/24 10:06:04;;;;;;;;;;;;;;;27.50;35.21;100152.34;5142936;27;19924;-82
2023/10/24 10:08:30;;;;;;;;;;;;;;;27.65;34.56;100155.34;5102512;28;19972;-81
2023/10/24 10:10:56;;;;;;;;;;;;;;;27.36;35.08;100144.38;5114746;28;19916;-81
2023/10/24 10:13:27;;;;;;;;;;;;;;;27.58;36.25;100133.16;5130969;27;20014;-82
2023/10/24 10:15:55;;;;;;;;;;;;;;;27.81;34.95;100130.09;5134574;27;19912;-83
2023/10/24 10:18:39;;;;;;;;;;;;;;;28.00;33.88;100124.19;5122087;28;19916;-82
2023/10/24 10:21:23;;;;;;;;;;;;;;;27.99;34.88;100126.13;5135910;27;20028;-84
2023/10/24 10:24:07;;;;;;;;;;;;;;;28.11;33.49;100119.06;5124642;27;20030;-82
2023/10/24 10:26:33;;;;;;;;;;;;;;;28.23;33.76;100110.91;5125221;27;19922;-81
2023/10/24 10:29:17;;;;;;;;;;;;;;;28.42;33.30;100108.47;5125579;27;20295;-85
2023/10/24 10:31:49;;;;;;;;;;;;;;;28.70;32.95;100096.09;5123857;27;20061;-84
2023/10/24 10:34:14;;;;;;;;;;;;;;;28.68;33.38;100110.16;5121769;27;20431;-81
2023/10/24 10:36:53;;;;;;;;;;;;;;;28.65;32.64;100102.63;5124378;27;20068;-82
2023/10/24 10:39:19;;;;;;;;;;;;;;;28.66;32.29;100101.47;5130001;27;20476;-83
2023/10/24 10:41:45;;;;;;;;;;;;;;;28.14;33.96;100091.00;5127409;27;19920;-82
2023/10/24 10:44:29;;;;;;;;;;;;;;;28.54;32.87;100093.19;5126659;28;19915;-81
2023/10/24 10:47:01;;;;;;;;;;;;;;;28.84;33.52;100085.59;5127900;28;19966;-81
2023/10/24 10:49:36;;;;;;;;;;;;;;;29.27;32.23;100091.72;5139469;27;19938;-83
2023/10/24 10:52:05;;;;;;;;;;;;;;;29.19;32.26;100082.44;5132922;27;19945;-83
2023/10/24 10:54:37;;;;;;;;;;;;;;;29.10;31.88;100088.03;5128203;27;19960;-83
2023/10/24 10:57:04;;;;;;;;;;;;;;;28.71;31.75;100076.56;5144411;27;19915;-83
2023/10/24 10:59:48;;;;;;;;;;;;;;;29.14;31.56;100072.50;5139130;27;19979;-83
2023/10/24 11:02:32;;;;;;;;;;;;;;;29.16;31.55;100072.16;5142713;27;20374;-83
2023/10/24 11:04:57;;;;;;;;;;;;;;;28.85;31.93;100071.53;5117728;28;19934;-82
2023/10/24 11:07:41;;;;;;;;;;;;;;;28.25;33.13;100064.75;5125973;27;19915;-81
2023/10/24 11:10:13;;;;;;;;;;;;;;;28.44;32.53;100056.81;5125279;28;19922;-83
2023/10/24 11:12:46;;;;;;;;;;;;;;;29.03;32.10;100061.16;5126227;28;19972;-82
2023/10/24 11:15:17;;;;;;;;;;;;;;;29.07;32.56;100055.75;5122361;27;19968;-84
2023/10/24 11:17:43;;;;;;;;;;;;;;;29.20;32.01;100064.84;5125547;27;20076;-83
2023/10/24 11:20:09;;;;;;;;;;;;;;;29.29;31.01;100053.72;5126309;27;19920;-82
2023/10/24 11:22:35;;;;;;;;;;;;;;;29.14;31.72;100050.53;5123096;27;19919;-82
2023/10/24 11:25:11;;;;;;;;;;;;;;;29.32;31.57;100044.75;5129742;27;19976;-82
2023/10/24 11:27:36;;;;;;;;;;;;;;;29.19;31.44;100042.03;5114290;28;19923;-83
2023/10/24 11:30:02;;;;;;;;;;;;;;;29.13;32.17;100048.13;5116362;27;19916;-83
2023/10/24 11:32:28;;;;;;;;;;;;;;;29.18;30.45;100051.44;5113673;27;19937;-82
2023/10/24 11:34:54;;;;;;;;;;;;;;;29.21;31.47;100042.50;5115003;27;19919;-82
2023/10/24 11:37:20;;;;;;;;;;;;;;;29.36;31.12;100042.94;5131279;27;19919;-83
2023/10/24 11:39:48;;;;;;;;;;;;;;;29.07;31.03;100039.28;5112028;27;19947;-83
2023/10/24 11:42:13;;;;;;;;;;;;;;;28.74;31.85;100029.22;5122680;27;19972;-83
2023/10/24 11:44:44;;;;;;;;;;;;;;;28.97;31.97;100035.06;5112232;27;19916;-84
2023/10/24 11:47:16;;;;;;;;;;;;;;;28.96;31.67;100027.16;5111904;28;20010;-82
2023/10/24 11:49:41;;;;;;;;;;;;;;;28.88;31.96;100019.84;5115514;27;19919;-83
2023/10/24 11:52:07;;;;;;;;;;;;;;;28.91;32.03;100024.63;5112179;28;19919;-82
2023/10/24 11:54:32;;;;;;;;;;;;;;;28.67;33.13;100026.25;5128352;27;19975;-82
2023/10/24 11:56:59;;;;;;;;;;;;;;;28.80;31.98;100016.88;5120509;27;20036;-82
2023/10/24 11:59:30;;;;;;;;;;;;;;;29.05;32.16;100011.38;5111002;27;20399;-84
2023/10/24 12:01:56;;;;;;;;;;;;;;;29.43;32.65;100007.44;5111135;28;19915;-82
2023/10/24 12:04:21;;;;;;;;;;;;;;;29.30;32.08;100006.69;5111536;28;20422;-82
2023/10/24 12:06:46;;;;;;;;;;;;;;;29.38;31.89;99999.44;5111009;27;19916;-84
2023/10/24 12:09:12;;;;;;;;;;;;;;;29.67;31.65;99992.00;5111759;27;19962;-85
2023/10/24 12:11:37;;;;;;;;;;;;;;;29.35;31.76;100000.16;5110595;28;19958;-82
2023/10/24 12:14:02;;;;;;;;;;;;;;;29.96;31.36;99999.16;5110203;28;19919;-82
2023/10/24 12:16:28;;;;;;;;;;;;;;;29.77;31.71;99988.78;5111277;27;19915;-84
2023/10/24 12:18:54;;;;;;;;;;;;;;;29.62;30.84;99991.13;5113022;27;19919;-83
2023/10/24 12:21:21;;;;;;;;;;;;;;;29.71;30.76;99993.75;5113717;27;20302;-82
2023/10/24 12:23:46;;;;;;;;;;;;;;;29.38;30.97;99988.44;5126796;27;19984;-82
2023/10/24 12:26:12;;;;;;;;;;;;;;;29.83;30.93;99984.66;5110961;27;19915;-82
2023/10/24 12:28:42;;;;;;;;;;;;;;;29.75;30.49;99977.34;5110849;28;19923;-82
2023/10/24 12:31:08;;;;;;;;;;;;;;;29.91;29.68;99978.19;5114724;27;19988;-83
2023/10/24 12:33:33;;;;;;;;;;;;;;;30.51;29.56;99982.91;5111040;28;20346;-82